createdAt,value
2022-09-30T00:01:09.545Z,21.41
2022-09-30T00:03:39.411Z,21.66
2022-09-30T00:06:08.681Z,21.77
2022-09-30T00:08:37.945Z,21.65
2022-09-30T00:11:08.207Z,21.68
2022-09-30T00:13:37.045Z,21.56
2022-09-30T00:16:05.037Z,21.74
2022-09-30T00:18:32.346Z,21.74
2022-09-30T00:20:59.920Z,21.20
2022-09-30T00:23:26.757Z,21.05
2022-09-30T00:26:02.391Z,21.44
2022-09-30T00:28:30.593Z,21.68
2022-09-30T00:31:01.991Z,21.90
2022-09-30T00:33:29.372Z,21.70
2022-09-30T00:35:56.186Z,21.27
2022-09-30T00:38:23.404Z,21.35
2022-09-30T00:40:51.614Z,21.64
2022-09-30T00:43:21.527Z,21.26
2022-09-30T00:45:56.844Z,21.47
2022-09-30T00:48:35.560Z,21.61
2022-09-30T00:51:03.671Z,21.70
2022-09-30T00:53:35.601Z,21.73
2022-09-30T00:56:07.836Z,21.60
2022-09-30T00:58:44.007Z,21.51
2022-09-30T01:01:11.733Z,21.58
2022-09-30T01:03:45.306Z,21.68
2022-09-30T01:06:12.432Z,21.36
2022-09-30T01:08:40.417Z,21.48
2022-09-30T01:11:08.392Z,21.37
2022-09-30T01:13:39.280Z,21.13
2022-09-30T01:16:15.986Z,21.01
2022-09-30T01:19:16.924Z,21.37
2022-09-30T01:22:03.238Z,21.45
2022-09-30T01:24:48.606Z,20.84
2022-09-30T01:27:39.527Z,21.15
2022-09-30T01:30:15.184Z,21.21
2022-09-30T01:33:03.966Z,21.12
2022-09-30T01:35:58.989Z,21.25
2022-09-30T01:38:36.413Z,20.78
2022-09-30T01:41:17.016Z,20.87
2022-09-30T01:44:10.290Z,21.37
2022-09-30T01:46:38.549Z,21.21
2022-09-30T01:49:20.548Z,21.14
2022-09-30T01:52:33.502Z,21.11
2022-09-30T01:55:17.913Z,21.21
2022-09-30T01:58:07.274Z,21.07
2022-09-30T02:00:39.871Z,21.30
2022-09-30T02:03:19.080Z,21.12
2022-09-30T02:05:56.059Z,21.20
2022-09-30T02:08:52.190Z,21.29
2022-09-30T02:11:32.777Z,21.28
2022-09-30T02:13:59.604Z,21.35
2022-09-30T02:16:32.548Z,20.94
2022-09-30T02:19:23.333Z,21.08
2022-09-30T02:22:03.768Z,20.83
2022-09-30T02:24:39.325Z,21.17
2022-09-30T02:27:14.704Z,21.17
2022-09-30T02:29:49.743Z,21.13
2022-09-30T02:32:40.906Z,21.30
2022-09-30T02:35:12.170Z,21.23
2022-09-30T02:37:48.269Z,21.29
2022-09-30T02:40:42.256Z,21.31
2022-09-30T02:43:10.468Z,21.21
2022-09-30T02:45:44.307Z,21.30
2022-09-30T02:48:19.230Z,21.25
2022-09-30T02:50:46.023Z,21.13
2022-09-30T02:53:29.447Z,20.93
2022-09-30T02:56:17.321Z,21.11
2022-09-30T02:58:46.029Z,21.06
2022-09-30T03:01:15.608Z,21.27
2022-09-30T03:03:47.819Z,21.36
2022-09-30T03:06:15.244Z,21.17
2022-09-30T03:08:42.572Z,21.33
2022-09-30T03:11:19.535Z,21.39
2022-09-30T03:13:52.178Z,21.39
2022-09-30T03:16:31.020Z,21.28
2022-09-30T03:19:23.189Z,21.49
2022-09-30T03:22:06.241Z,21.30
2022-09-30T03:24:52.161Z,21.07
2022-09-30T03:27:24.855Z,21.30
2022-09-30T03:29:57.447Z,21.17
2022-09-30T03:32:42.350Z,21.23
2022-09-30T03:35:27.518Z,21.17
2022-09-30T03:38:33.588Z,21.08
2022-09-30T03:41:12.203Z,21.13
2022-09-30T03:44:06.955Z,20.93
2022-09-30T03:46:42.075Z,21.07
2022-09-30T03:49:13.715Z,20.89
2022-09-30T03:51:41.864Z,20.95
2022-09-30T03:54:11.429Z,20.90
2022-09-30T03:56:43.336Z,20.72
2022-09-30T03:59:26.064Z,20.91
2022-09-30T04:01:53.793Z,20.97
2022-09-30T04:04:21.023Z,21.06
2022-09-30T04:06:48.103Z,21.02
2022-09-30T04:09:15.148Z,20.98
2022-09-30T04:11:42.797Z,21.05
2022-09-30T04:14:09.737Z,20.65
2022-09-30T04:16:36.762Z,20.81
2022-09-30T04:19:03.852Z,20.91
2022-09-30T04:21:31.050Z,20.86
2022-09-30T04:23:57.814Z,20.85
2022-09-30T04:26:24.742Z,20.25
2022-09-30T04:28:52.578Z,20.68
2022-09-30T04:31:20.725Z,20.19
2022-09-30T04:33:47.720Z,20.34
2022-09-30T04:36:14.776Z,20.41
2022-09-30T04:38:41.759Z,20.39
2022-09-30T04:41:14.072Z,20.52
2022-09-30T04:43:45.112Z,20.50
2022-09-30T04:46:12.651Z,20.30
2022-09-30T04:48:39.479Z,20.77
2022-09-30T04:51:06.535Z,20.42
2022-09-30T04:53:34.377Z,20.78
2022-09-30T04:56:01.772Z,19.74
2022-09-30T04:58:33.374Z,20.63
2022-09-30T05:01:06.037Z,20.74
2022-09-30T05:03:34.253Z,20.75
2022-09-30T05:06:01.568Z,21.01
2022-09-30T05:08:28.355Z,20.88
2022-09-30T05:11:00.661Z,20.99
2022-09-30T05:13:32.973Z,20.99
2022-09-30T05:16:00.418Z,20.94
2022-09-30T05:18:27.387Z,21.06
2022-09-30T05:20:55.531Z,20.41
2022-09-30T05:23:22.305Z,20.74
2022-09-30T05:25:49.062Z,20.88
2022-09-30T05:28:16.137Z,20.62
2022-09-30T05:30:43.650Z,20.74
2022-09-30T05:33:12.163Z,20.90
2022-09-30T05:35:43.075Z,20.86
2022-09-30T05:38:11.020Z,20.82
2022-09-30T05:40:40.941Z,21.01
2022-09-30T05:43:07.852Z,21.17
2022-09-30T05:45:34.877Z,21.19
2022-09-30T05:48:02.627Z,21.27
2022-09-30T05:50:29.542Z,21.15
2022-09-30T05:52:57.497Z,20.76
2022-09-30T05:55:24.771Z,20.86
2022-09-30T05:57:52.900Z,20.77
2022-09-30T06:00:20.548Z,20.70
2022-09-30T06:02:52.023Z,20.63
2022-09-30T06:05:19.050Z,20.90
2022-09-30T06:07:45.968Z,20.85
2022-09-30T06:10:12.952Z,20.78
2022-09-30T06:12:39.894Z,20.81
2022-09-30T06:15:07.206Z,21.02
2022-09-30T06:17:34.683Z,21.30
2022-09-30T06:20:02.427Z,20.95
2022-09-30T06:22:29.236Z,20.88
2022-09-30T06:24:57.267Z,21.24
2022-09-30T06:27:25.211Z,20.93
2022-09-30T06:29:51.998Z,20.98
2022-09-30T06:32:18.936Z,20.94
2022-09-30T06:34:45.865Z,21.09
2022-09-30T06:37:13.836Z,21.23
2022-09-30T06:39:41.782Z,21.22
2022-09-30T06:42:10.178Z,21.13
2022-09-30T06:44:49.195Z,21.53
2022-09-30T06:47:25.114Z,21.43
2022-09-30T06:49:53.248Z,21.11
2022-09-30T06:52:20.279Z,21.06
2022-09-30T06:54:49.770Z,21.18
2022-09-30T06:57:22.346Z,21.22
2022-09-30T06:59:50.031Z,21.36
2022-09-30T07:02:17.323Z,21.62
2022-09-30T07:04:44.131Z,21.07
2022-09-30T07:07:11.256Z,20.73
2022-09-30T07:09:38.564Z,21.27
2022-09-30T07:12:07.409Z,21.84
2022-09-30T07:14:35.942Z,22.03
2022-09-30T07:17:04.677Z,21.77
2022-09-30T07:19:34.206Z,21.87
2022-09-30T07:22:21.800Z,22.19
2022-09-30T07:24:49.517Z,21.85
2022-09-30T07:27:16.547Z,22.48
2022-09-30T07:30:07.788Z,22.29
2022-09-30T07:32:32.036Z,21.79
2022-09-30T07:34:58.843Z,21.27
2022-09-30T07:37:26.375Z,22.32
2022-09-30T07:39:54.140Z,22.37
2022-09-30T07:42:22.961Z,22.36
2022-09-30T07:44:52.150Z,21.27
2022-09-30T07:47:20.315Z,22.27
2022-09-30T07:49:47.776Z,22.38
2022-09-30T07:52:15.037Z,21.80
2022-09-30T07:54:48.053Z,21.72
2022-09-30T07:57:15.226Z,22.40
2022-09-30T07:59:42.273Z,22.00
2022-09-30T08:02:14.982Z,22.59
2022-09-30T08:04:44.242Z,22.73
2022-09-30T08:07:12.734Z,23.19
2022-09-30T08:09:39.715Z,22.67
2022-09-30T08:12:06.593Z,23.10
2022-09-30T08:14:33.826Z,22.97
2022-09-30T08:17:01.461Z,22.69
2022-09-30T08:19:30.182Z,23.20
2022-09-30T08:21:57.720Z,24.26
2022-09-30T08:24:26.751Z,24.69
2022-09-30T08:26:54.521Z,24.51
2022-09-30T08:29:42.749Z,24.69
2022-09-30T08:32:08.990Z,23.79
2022-09-30T08:34:36.084Z,24.49
2022-09-30T08:37:08.632Z,24.83
2022-09-30T08:39:37.917Z,25.27
2022-09-30T08:42:49.684Z,25.37
2022-09-30T08:46:05.775Z,25.19
2022-09-30T08:48:45.547Z,25.45
2022-09-30T08:51:30.667Z,25.57
2022-09-30T08:54:00.457Z,24.79
2022-09-30T08:56:30.733Z,25.39
2022-09-30T08:59:15.997Z,25.61
2022-09-30T09:01:49.801Z,25.99
2022-09-30T09:04:18.444Z,26.08
2022-09-30T09:06:58.619Z,25.76
2022-09-30T09:09:58.930Z,26.38
2022-09-30T09:13:05.432Z,26.38
2022-09-30T09:15:38.551Z,26.31
2022-09-30T09:18:25.832Z,26.85
2022-09-30T09:20:58.134Z,27.26
2022-09-30T09:23:31.277Z,26.64
2022-09-30T09:25:58.815Z,26.61
2022-09-30T09:28:29.429Z,27.10
2022-09-30T09:30:58.968Z,27.49
2022-09-30T09:33:30.861Z,27.41
2022-09-30T09:36:13.888Z,27.50
2022-09-30T09:39:05.358Z,27.71
2022-09-30T09:41:47.093Z,27.34
2022-09-30T09:44:34.036Z,27.83
2022-09-30T09:47:17.390Z,28.02
2022-09-30T09:49:57.656Z,28.20
2022-09-30T09:52:37.071Z,27.81
2022-09-30T09:55:04.149Z,28.65
2022-09-30T09:57:33.765Z,28.65
2022-09-30T10:00:24.879Z,28.57
2022-09-30T10:03:12.303Z,28.33
2022-09-30T10:05:39.982Z,28.90
2022-09-30T10:08:09.847Z,29.07
2022-09-30T10:10:49.680Z,29.13
2022-09-30T10:13:18.944Z,28.98
2022-09-30T10:15:46.777Z,29.37
2022-09-30T10:18:24.056Z,29.18
2022-09-30T10:20:54.585Z,29.20
2022-09-30T10:23:40.530Z,29.59
2022-09-30T10:26:19.006Z,29.71
2022-09-30T10:28:55.038Z,29.22
2022-09-30T10:31:21.911Z,29.65
2022-09-30T10:33:59.884Z,29.53
2022-09-30T10:36:36.563Z,29.57
2022-09-30T10:39:25.206Z,30.05
2022-09-30T10:42:11.191Z,29.53
2022-09-30T10:45:04.482Z,30.05
2022-09-30T10:47:36.575Z,29.92
2022-09-30T10:50:13.172Z,30.08
2022-09-30T10:52:50.378Z,30.42
2022-09-30T10:55:20.063Z,30.14
2022-09-30T10:57:50.060Z,30.06
2022-09-30T11:00:22.079Z,29.24
2022-09-30T11:03:00.118Z,30.13
2022-09-30T11:05:36.005Z,30.47
2022-09-30T11:08:14.405Z,30.44
2022-09-30T11:11:08.836Z,30.18
2022-09-30T11:14:07.418Z,30.35
2022-09-30T11:17:08.652Z,29.82
2022-09-30T11:19:48.582Z,30.48
2022-09-30T11:22:24.073Z,31.19
2022-09-30T11:24:53.503Z,30.88
2022-09-30T11:27:35.081Z,31.26
2022-09-30T11:30:10.774Z,30.90
2022-09-30T11:32:49.591Z,31.33
2022-09-30T11:35:47.226Z,31.31
2022-09-30T11:38:44.296Z,31.12
2022-09-30T11:41:19.851Z,31.85
2022-09-30T11:44:19.410Z,32.27
2022-09-30T11:47:03.239Z,31.49
2022-09-30T11:50:05.982Z,32.08
2022-09-30T11:52:35.646Z,32.05
2022-09-30T11:55:15.528Z,32.27
2022-09-30T11:58:12.014Z,32.23
2022-09-30T12:00:49.748Z,32.39
2022-09-30T12:03:27.244Z,32.23
2022-09-30T12:06:10.413Z,32.31
2022-09-30T12:08:58.044Z,31.88
2022-09-30T12:11:32.595Z,31.66
2022-09-30T12:14:05.492Z,31.50
2022-09-30T12:16:34.694Z,31.66
2022-09-30T12:19:39.995Z,31.78
2022-09-30T12:22:14.362Z,31.62
2022-09-30T12:24:44.871Z,31.99
2022-09-30T12:27:42.900Z,31.66
2022-09-30T12:30:20.452Z,31.40
2022-09-30T12:33:29.816Z,31.51
2022-09-30T12:36:27.529Z,31.04
2022-09-30T12:39:15.949Z,31.49
2022-09-30T12:41:57.991Z,31.28
2022-09-30T12:44:34.051Z,31.46
2022-09-30T12:47:06.715Z,32.56
2022-09-30T12:49:37.580Z,31.37
2022-09-30T12:52:12.491Z,31.44
2022-09-30T12:54:47.690Z,31.50
2022-09-30T12:57:21.255Z,32.02
2022-09-30T12:59:53.768Z,31.72
2022-09-30T13:02:42.225Z,32.76
2022-09-30T13:05:27.200Z,32.61
2022-09-30T13:08:06.291Z,33.42
2022-09-30T13:10:34.624Z,33.25
2022-09-30T13:13:10.381Z,32.04
2022-09-30T13:15:37.411Z,31.88
2022-09-30T13:18:26.879Z,31.64
2022-09-30T13:21:06.737Z,32.03
2022-09-30T13:23:56.639Z,32.07
2022-09-30T13:26:26.378Z,32.55
2022-09-30T13:29:19.691Z,32.85
2022-09-30T13:31:49.592Z,33.21
2022-09-30T13:34:24.836Z,33.24
2022-09-30T13:36:51.638Z,33.49
2022-09-30T13:39:27.555Z,32.81
2022-09-30T13:42:32.895Z,32.29
2022-09-30T13:45:04.621Z,33.53
2022-09-30T13:47:44.656Z,34.27
2022-09-30T13:50:34.159Z,34.83
2022-09-30T13:53:05.702Z,34.07
2022-09-30T13:55:41.572Z,34.20
2022-09-30T13:58:30.919Z,33.61
2022-09-30T14:01:26.197Z,33.72
2022-09-30T14:04:34.784Z,33.45
2022-09-30T14:07:26.199Z,33.30
2022-09-30T14:10:20.221Z,33.67
2022-09-30T14:13:05.912Z,33.18
2022-09-30T14:16:06.425Z,33.46
2022-09-30T14:18:52.010Z,32.75
2022-09-30T14:21:59.123Z,32.97
2022-09-30T14:24:37.381Z,32.36
2022-09-30T14:27:31.619Z,32.31
2022-09-30T14:30:19.417Z,32.22
2022-09-30T14:32:58.465Z,33.05
2022-09-30T14:38:23.256Z,32.59
2022-09-30T14:40:53.181Z,33.14
2022-09-30T14:43:24.236Z,32.95
2022-09-30T14:45:55.591Z,33.02
2022-09-30T14:48:29.465Z,33.06
2022-09-30T14:51:08.220Z,32.86
2022-09-30T14:53:39.291Z,33.27
2022-09-30T14:56:23.586Z,32.34
2022-09-30T14:58:52.939Z,31.42
2022-09-30T15:01:25.877Z,31.62
2022-09-30T15:03:56.910Z,31.02
2022-09-30T15:06:28.374Z,31.06
2022-09-30T15:09:05.065Z,30.26
2022-09-30T15:11:39.359Z,30.95
2022-09-30T15:14:15.058Z,30.88
2022-09-30T15:16:50.556Z,30.43
2022-09-30T15:19:28.901Z,30.62
2022-09-30T15:22:02.296Z,31.23
2022-09-30T15:24:32.707Z,30.97
2022-09-30T15:27:01.208Z,30.67
2022-09-30T15:29:28.546Z,30.47
2022-09-30T15:32:18.540Z,29.95
2022-09-30T15:34:46.006Z,29.98
2022-09-30T15:37:23.105Z,30.17
2022-09-30T15:40:09.811Z,30.12
2022-09-30T15:42:44.019Z,30.43
2022-09-30T15:45:18.086Z,30.77
2022-09-30T15:47:57.975Z,30.29
2022-09-30T15:50:42.544Z,30.12
2022-09-30T15:53:24.211Z,30.45
2022-09-30T15:56:18.946Z,30.24
2022-09-30T15:59:02.117Z,30.10
2022-09-30T16:01:36.032Z,30.09
2022-09-30T16:04:10.882Z,29.74
2022-09-30T16:06:46.480Z,29.50
2022-09-30T16:09:20.318Z,29.79
2022-09-30T16:11:59.275Z,29.13
2022-09-30T16:14:54.292Z,28.88
2022-09-30T16:17:48.558Z,29.09
2022-09-30T16:20:15.489Z,29.46
2022-09-30T16:22:42.253Z,29.49
2022-09-30T16:25:28.025Z,29.69
2022-09-30T16:28:14.787Z,29.53
2022-09-30T16:30:44.684Z,29.89
2022-09-30T16:33:13.980Z,29.75
2022-09-30T16:35:45.307Z,29.38
2022-09-30T16:38:14.475Z,29.36
2022-09-30T16:40:41.560Z,29.68
2022-09-30T16:43:11.757Z,29.49
2022-09-30T16:45:44.013Z,28.84
2022-09-30T16:48:21.553Z,29.30
2022-09-30T16:51:03.716Z,29.30
2022-09-30T16:53:30.823Z,28.73
2022-09-30T16:55:57.572Z,28.57
2022-09-30T16:58:24.596Z,28.25
2022-09-30T17:00:51.740Z,28.21
2022-09-30T17:03:21.570Z,28.62
2022-09-30T17:05:53.200Z,28.38
2022-09-30T17:08:21.248Z,28.21
2022-09-30T17:10:50.149Z,27.73
2022-09-30T17:13:18.631Z,28.46
2022-09-30T17:15:51.862Z,28.37
2022-09-30T17:18:19.664Z,27.78
2022-09-30T17:20:52.722Z,27.70
2022-09-30T17:23:21.425Z,27.92
2022-09-30T17:25:49.407Z,28.23
2022-09-30T17:28:17.024Z,28.26
2022-09-30T17:30:46.779Z,28.56
2022-09-30T17:33:14.396Z,28.84
2022-09-30T17:35:41.496Z,28.84
2022-09-30T17:38:10.190Z,28.43
2022-09-30T17:40:55.744Z,27.27
2022-09-30T17:43:22.857Z,27.99
2022-09-30T17:45:55.665Z,28.20
2022-09-30T17:48:22.579Z,28.14
2022-09-30T17:50:49.425Z,28.20
2022-09-30T17:53:18.105Z,27.80
2022-09-30T17:55:49.985Z,27.92
2022-09-30T17:58:17.977Z,28.06
2022-09-30T18:00:46.837Z,27.87
2022-09-30T18:03:13.992Z,28.02
2022-09-30T18:05:40.847Z,28.04
2022-09-30T18:08:07.719Z,27.85
2022-09-30T18:10:37.113Z,27.63
2022-09-30T18:13:04.167Z,27.78
2022-09-30T18:15:31.157Z,27.76
2022-09-30T18:17:58.204Z,27.62
2022-09-30T18:20:25.710Z,27.46
2022-09-30T18:22:52.932Z,27.14
2022-09-30T18:25:20.042Z,25.68
2022-09-30T18:27:48.761Z,26.20
2022-09-30T18:30:15.798Z,26.62
2022-09-30T18:32:42.832Z,26.82
2022-09-30T18:35:13.158Z,26.78
2022-09-30T18:37:42.359Z,26.81
2022-09-30T18:40:09.874Z,26.78
2022-09-30T18:42:38.101Z,26.81
2022-09-30T18:45:06.064Z,26.66
2022-09-30T18:47:33.076Z,25.80
2022-09-30T18:49:59.850Z,25.92
2022-09-30T18:52:26.927Z,26.38
2022-09-30T18:54:54.369Z,26.34
2022-09-30T18:57:21.096Z,26.40
2022-09-30T18:59:47.999Z,26.58
2022-09-30T19:02:18.253Z,26.18
2022-09-30T19:04:46.620Z,25.92
2022-09-30T19:07:13.366Z,26.14
2022-09-30T19:09:41.285Z,25.93
2022-09-30T19:12:08.029Z,25.92
2022-09-30T19:14:36.745Z,25.65
2022-09-30T19:17:04.215Z,24.92
2022-09-30T19:19:32.368Z,25.45
2022-09-30T19:22:01.319Z,25.36
2022-09-30T19:24:28.202Z,25.46
2022-09-30T19:26:54.878Z,25.43
2022-09-30T19:29:22.327Z,25.63
2022-09-30T19:31:51.473Z,25.69
2022-09-30T19:34:29.924Z,25.68
2022-09-30T19:36:59.818Z,25.80
2022-09-30T19:39:36.719Z,25.71
2022-09-30T19:42:06.597Z,25.17
2022-09-30T19:44:35.876Z,25.32
2022-09-30T19:47:02.780Z,25.01
2022-09-30T19:49:30.800Z,25.16
2022-09-30T19:51:57.632Z,25.20
2022-09-30T19:54:37.574Z,25.18
2022-09-30T19:57:07.265Z,25.30
2022-09-30T19:59:34.145Z,25.31
2022-09-30T20:02:01.325Z,25.21
2022-09-30T20:04:29.584Z,24.89
2022-09-30T20:06:56.492Z,25.06
2022-09-30T20:09:24.251Z,24.90
2022-09-30T20:11:51.544Z,24.97
2022-09-30T20:14:36.815Z,23.75
2022-09-30T20:17:03.828Z,24.24
2022-09-30T20:19:31.614Z,24.56
2022-09-30T20:21:58.533Z,24.76
2022-09-30T20:24:26.168Z,24.58
2022-09-30T20:26:53.025Z,24.21
2022-09-30T20:29:22.586Z,24.16
2022-09-30T20:31:50.669Z,23.96
2022-09-30T20:34:18.949Z,23.67
2022-09-30T20:36:45.800Z,23.78
2022-09-30T20:39:12.951Z,24.29
2022-09-30T20:41:46.135Z,24.30
2022-09-30T20:44:13.715Z,24.01
2022-09-30T20:46:41.964Z,22.84
2022-09-30T20:49:09.566Z,21.78
2022-09-30T20:51:36.510Z,22.59
2022-09-30T20:54:03.609Z,23.20
2022-09-30T20:56:44.479Z,23.35
2022-09-30T20:59:17.924Z,22.90
2022-09-30T21:01:44.728Z,22.96
2022-09-30T21:04:12.877Z,23.27
2022-09-30T21:06:39.681Z,23.61
2022-09-30T21:09:11.401Z,23.65
2022-09-30T21:11:42.507Z,23.09
2022-09-30T21:14:09.496Z,23.41
2022-09-30T21:16:36.254Z,23.45
2022-09-30T21:19:03.259Z,23.52
2022-09-30T21:21:30.153Z,23.79
2022-09-30T21:23:58.721Z,23.28
2022-09-30T21:26:28.204Z,23.42
2022-09-30T21:28:55.125Z,23.51
2022-09-30T21:31:29.200Z,23.60
2022-09-30T21:34:00.840Z,23.86
2022-09-30T21:36:28.383Z,23.80
2022-09-30T21:39:01.387Z,23.99
2022-09-30T21:41:28.706Z,23.76
2022-09-30T21:43:55.899Z,23.86
2022-09-30T21:46:23.381Z,23.95
2022-09-30T21:48:50.672Z,23.65
2022-09-30T21:51:20.340Z,23.80
2022-09-30T21:53:48.793Z,23.84
2022-09-30T21:56:15.500Z,23.75
2022-09-30T21:58:42.340Z,23.26
2022-09-30T22:01:10.324Z,23.41
2022-09-30T22:03:40.656Z,23.50
2022-09-30T22:06:09.224Z,23.48
2022-09-30T22:08:40.348Z,23.31
2022-09-30T22:11:16.130Z,23.33
2022-09-30T22:13:44.653Z,23.28
2022-09-30T22:16:15.253Z,23.41
2022-09-30T22:18:43.081Z,23.39
2022-09-30T22:21:12.526Z,23.08
2022-09-30T22:23:39.698Z,22.34
2022-09-30T22:26:25.426Z,22.54
2022-09-30T22:29:03.504Z,22.72
2022-09-30T22:31:32.441Z,22.46
2022-09-30T22:34:20.805Z,22.63
2022-09-30T22:37:06.857Z,22.43
2022-09-30T22:39:34.069Z,22.72
2022-09-30T22:42:01.512Z,22.73
2022-09-30T22:44:32.883Z,22.98
2022-09-30T22:47:00.310Z,22.62
2022-09-30T22:49:37.171Z,22.73
2022-09-30T22:52:04.078Z,22.65
2022-09-30T22:54:30.962Z,22.47
2022-09-30T22:56:59.449Z,22.28
2022-09-30T22:59:27.153Z,22.21
2022-09-30T23:01:55.481Z,22.24
2022-09-30T23:04:22.497Z,22.33
2022-09-30T23:06:55.333Z,22.32
2022-09-30T23:09:22.790Z,22.47
2022-09-30T23:11:53.619Z,22.31
2022-09-30T23:14:21.643Z,22.11
2022-09-30T23:16:49.072Z,22.22
2022-09-30T23:19:15.909Z,22.27
2022-09-30T23:21:42.838Z,22.47
2022-09-30T23:24:09.853Z,22.48
2022-09-30T23:26:37.144Z,22.54
2022-09-30T23:29:10.342Z,22.18
2022-09-30T23:31:38.000Z,22.34
2022-09-30T23:34:05.804Z,21.60
2022-09-30T23:36:35.612Z,21.43
2022-09-30T23:39:08.233Z,21.77
2022-09-30T23:41:35.968Z,21.93
2022-09-30T23:44:04.351Z,20.37
2022-09-30T23:46:31.604Z,21.38
2022-09-30T23:48:58.392Z,21.38
2022-09-30T23:51:25.252Z,20.95
2022-09-30T23:53:52.036Z,21.19
2022-09-30T23:56:19.369Z,21.31
2022-09-30T23:58:46.861Z,21.50
